Terminal Aerodrome Forecast
Issued by NWS

Current Version | Previous Version | Text Only | Print | Product List | Glossary On
Versions: 1 2 3 4 5 6 7 8 9 10 11 12 13 14 15 16 17
000
FTUS45 KRIW 250520
TAFCOD
TAF
KCOD 250520Z 2506/2606 VRB06KT P6SM VCSH SCT035 BKN070
     FM251700 VRB11G18KT P6SM -SHRA VCTS BKN040CB
     FM252200 36010KT P6SM -SHRA SCT035 BKN045
     FM260400 VRB06KT P6SM VCSH FEW005 BKN045
      AMD LTD TO CLD VIS AND WIND=

USA.gov is the U.S. government's official web portal to all federal, state and local government web resources and services.